Trabzon International Airport
LTCG : now visible

Airfield :











YOU CAN JOIN US ON...

 
LOGIN :

Register | Disclaimer

   EN    FR    IT 

 









Legend :    VFR   Marginal VFR   IFR   Intensive IFR   Very Intensive IFR
Visi :
Ceiling :
>= 8 km
>= 3000ft
5 to 8 km
1000 to 3000 ft
1500m to 5 km
500 to 1000 ft
800 to 1500m
200 to 500 ft
< 800m
< 200 ft
Symbols :   Thunderstorms  Fog  Heavy snow  Heavy precipitations  Wind > 20 kt







- Airport Elevation : 104 ft
- IATA code : TZX


LTCG - Trabzon International

CURRENT METAR :
  • 162220Z 00000KT 9999 BKN028 25/21 Q1009 NOSIG RMK RWY29 04002KT

EXPIRED METARs :
  • 162150Z VRB02KT 9999 BKN028 24/21 Q1009 NOSIG RMK RWY29 VRB02KT
  • 162120Z 00000KT 9999 BKN028 25/21 Q1009 NOSIG RMK RWY29 00000KT
  • 162050Z VRB01KT 9999 FEW013 BKN028 25/22 Q1010 NOSIG RMK RWY29 VRB01KT
  • 162020Z 00000KT 9999 FEW013 BKN028 25/21 Q1010 TEMPO TL2100 29012KT -TSRA
  • 161950Z 09003KT 060V120 9999 FEW013 BKN028 25/22 Q1010 TEMPO TL 2100 29012KT -TSRA

TAF TAF LTCG
Valid from the 16 at 18:00 until the 17 at 18:00 UTC


161640Z 1618/1718 VRB02KT 9999 SCT012 BKN028
TEMPO 1618/1621 29012KT -TSRA SCT006 FEW020CB BKN025
BECMG 1622/1701 28012KT -SHRA
PROB40
TEMPO 1622/1702 BKN006 FEW020CB BKN025
TEMPO 1702/1706 31015G25KT 3500 TSRA BKN006 FEW020CB BKN025
No reported NOTAMs for that airfield.



MET'MAP, your aeronautical weather chart ! - Copyright ORBIFLY December 2007 - Disclaimer

ORBIFLY MET'MAP TEAM :

Programming & Development : Alexandra Zaïnal
Concept & Development : Baudouin d'Aumeries
Co-Development & Prog : Marc-Olivier Méhu
Technical & hardware support : Manuel Goepfert

Contact : metmap@orbifly.com




SOURCES & CREDITS :

   NOAA       Earth
Advisory